Corguinho, Brazil
Current Conditions -  °F | °C
As of 7:00 PM on Saturday 25 Oct 2014 (Local Time) from SBCG Reporting Station
Thunderstorm Thunderstorm  
Wind Chill: 72°   Ceiling: 10000
Heat Index: 72°   Visibility: 6mi
Dew Point: 66°   Wind: 3mph
Humidity: 83%   Direction: 70°ENE
Pressure: 29.88"   Gusts: NA
Location:  19.83°S, 54.83°W
Report Text: SBCG 252200Z 07003KT 9999 TS VCSH FEW010 SCT040 FEW050CB BKN100 22/19 Q1012
Loading
Personal Weather Stations






























Interactive Weather Map
Tropical Storm Tracking
New forecast layout! Learn more

10-Day Weather Forecast

Advertisements
Track Severe Weather on mobile